createdAt,value
2018-05-15T00:02:04.505Z,92.28
2018-05-15T00:04:32.103Z,92.22
2018-05-15T00:06:59.660Z,92.44
2018-05-15T00:09:27.214Z,93.00
2018-05-15T00:11:54.894Z,92.44
2018-05-15T00:14:22.492Z,92.41
2018-05-15T00:16:50.096Z,92.25
2018-05-15T00:19:17.670Z,92.15
2018-05-15T00:21:45.213Z,92.54
2018-05-15T00:24:12.750Z,92.43
2018-05-15T00:26:40.324Z,92.60
2018-05-15T00:29:07.873Z,92.64
2018-05-15T00:31:35.413Z,93.11
2018-05-15T00:34:06.168Z,93.10
2018-05-15T00:36:33.738Z,93.30
2018-05-15T00:39:01.292Z,92.96
2018-05-15T00:41:28.902Z,93.63
2018-05-15T00:43:56.474Z,93.15
2018-05-15T00:46:24.072Z,92.58
2018-05-15T00:48:51.644Z,92.96
2018-05-15T00:51:19.208Z,93.47
2018-05-15T00:53:46.801Z,93.07
2018-05-15T00:56:14.380Z,92.05
2018-05-15T00:58:42.046Z,92.59
2018-05-15T01:01:09.621Z,92.14
2018-05-15T01:03:37.162Z,92.45
2018-05-15T01:06:04.757Z,92.78
2018-05-15T01:08:32.402Z,92.29
2018-05-15T01:11:00.051Z,92.11
2018-05-15T01:13:27.615Z,91.47
2018-05-15T01:15:55.166Z,91.74
2018-05-15T01:18:22.750Z,91.79
2018-05-15T01:20:50.308Z,92.10
2018-05-15T01:23:19.274Z,91.87
2018-05-15T01:25:46.825Z,92.24
2018-05-15T01:28:14.399Z,93.21
2018-05-15T01:30:41.958Z,91.96
2018-05-15T01:33:09.526Z,91.95
2018-05-15T01:35:37.074Z,92.07
2018-05-15T01:38:04.634Z,91.98
2018-05-15T01:40:32.207Z,91.86
2018-05-15T01:42:59.868Z,91.65
2018-05-15T01:45:27.399Z,92.09
2018-05-15T01:47:54.956Z,92.33
2018-05-15T01:50:22.564Z,92.87
2018-05-15T01:52:50.153Z,92.20
2018-05-15T01:55:17.739Z,91.86
2018-05-15T01:57:45.327Z,91.89
2018-05-15T02:00:12.870Z,92.59
2018-05-15T02:02:40.437Z,91.81
2018-05-15T02:05:07.987Z,91.55
2018-05-15T02:07:35.576Z,91.17
2018-05-15T02:10:03.129Z,91.19
2018-05-15T02:12:30.710Z,90.82
2018-05-15T02:14:58.267Z,90.94
2018-05-15T02:17:25.854Z,90.64
2018-05-15T02:19:53.409Z,90.92
2018-05-15T02:22:20.953Z,90.09
2018-05-15T02:24:48.534Z,90.17
2018-05-15T02:27:16.115Z,90.04
2018-05-15T02:29:43.659Z,89.65
2018-05-15T02:32:11.209Z,89.58
2018-05-15T02:34:38.819Z,89.83
2018-05-15T02:37:06.386Z,89.98
2018-05-15T02:39:34.000Z,89.73
2018-05-15T02:42:01.532Z,90.00
2018-05-15T02:44:29.089Z,90.34
2018-05-15T02:46:56.656Z,90.08
2018-05-15T02:49:24.256Z,89.71
2018-05-15T02:51:51.824Z,89.46
2018-05-15T02:54:19.629Z,89.18
2018-05-15T02:56:47.194Z,89.49
2018-05-15T02:59:14.770Z,89.01
2018-05-15T03:01:42.607Z,89.29
2018-05-15T03:04:10.178Z,89.35
2018-05-15T03:06:37.774Z,89.42
2018-05-15T03:09:05.335Z,89.12
2018-05-15T03:11:33.170Z,89.02
2018-05-15T03:14:01.581Z,89.55
2018-05-15T03:16:29.382Z,89.52
2018-05-15T03:18:56.943Z,89.27
2018-05-15T03:21:24.494Z,89.98
2018-05-15T03:23:52.049Z,89.07
2018-05-15T03:26:20.654Z,88.87
2018-05-15T03:28:48.450Z,89.20
2018-05-15T03:31:16.033Z,88.51
2018-05-15T03:33:43.666Z,88.66
2018-05-15T03:36:11.233Z,88.41
2018-05-15T03:38:38.794Z,88.96
2018-05-15T03:41:06.377Z,89.26
2018-05-15T03:43:33.947Z,88.97
2018-05-15T03:46:01.492Z,88.62
2018-05-15T03:48:29.098Z,88.91
2018-05-15T03:50:56.671Z,88.89
2018-05-15T03:53:24.254Z,88.70
2018-05-15T03:55:51.792Z,88.36
2018-05-15T03:58:19.453Z,88.53
2018-05-15T04:00:58.793Z,88.29
2018-05-15T04:03:38.331Z,87.97
2018-05-15T04:06:17.724Z,88.34
2018-05-15T04:08:45.274Z,88.07
2018-05-15T04:11:12.943Z,88.13
2018-05-15T04:13:40.437Z,87.31
2018-05-15T04:16:08.248Z,87.53
2018-05-15T04:18:35.862Z,87.62
2018-05-15T04:21:04.421Z,87.17
2018-05-15T04:23:32.046Z,86.69
2018-05-15T04:25:59.616Z,86.72
2018-05-15T04:28:27.211Z,86.66
2018-05-15T04:30:54.754Z,86.83
2018-05-15T04:33:22.384Z,86.74
2018-05-15T04:35:49.894Z,87.06
2018-05-15T04:38:17.409Z,87.07
2018-05-15T04:40:44.936Z,86.69
2018-05-15T04:43:12.506Z,87.02
2018-05-15T04:45:40.138Z,87.16
2018-05-15T04:48:07.698Z,86.37
2018-05-15T04:50:35.262Z,86.61
2018-05-15T04:53:02.889Z,86.48
2018-05-15T04:55:30.441Z,84.88
2018-05-15T04:57:58.009Z,85.47
2018-05-15T05:00:25.586Z,85.21
2018-05-15T05:02:53.198Z,85.81
2018-05-15T05:05:20.746Z,85.27
2018-05-15T05:07:48.533Z,84.68
2018-05-15T05:10:16.085Z,85.26
2018-05-15T05:12:43.651Z,85.46
2018-05-15T05:15:11.372Z,84.77
2018-05-15T05:17:38.914Z,84.69
2018-05-15T05:20:06.463Z,82.34
2018-05-15T05:22:34.021Z,82.41
2018-05-15T05:25:02.186Z,82.85
2018-05-15T05:27:29.721Z,81.96
2018-05-15T05:29:57.259Z,80.13
2018-05-15T05:32:24.818Z,79.85
2018-05-15T05:34:53.001Z,81.23
2018-05-15T05:37:20.547Z,81.56
2018-05-15T05:39:48.115Z,79.43
2018-05-15T05:42:15.667Z,79.40
2018-05-15T05:44:44.045Z,78.58
2018-05-15T05:47:11.585Z,78.98
2018-05-15T05:49:39.103Z,78.77
2018-05-15T05:52:06.705Z,79.45
2018-05-15T05:54:34.255Z,78.51
2018-05-15T05:57:03.858Z,76.56
2018-05-15T05:59:31.416Z,73.33
2018-05-15T06:01:58.968Z,75.11
2018-05-15T06:04:26.660Z,76.81
2018-05-15T06:06:54.215Z,77.04
2018-05-15T06:09:21.814Z,77.72
2018-05-15T06:11:49.407Z,78.01
2018-05-15T06:14:17.028Z,79.81
2018-05-15T06:16:44.564Z,78.01
2018-05-15T06:19:12.115Z,78.53
2018-05-15T06:21:39.658Z,79.43
2018-05-15T06:24:07.191Z,80.17
2018-05-15T06:26:34.737Z,79.36
2018-05-15T06:29:02.302Z,79.35
2018-05-15T06:31:29.867Z,80.22
2018-05-15T06:33:57.414Z,80.33
2018-05-15T06:36:24.999Z,80.38
2018-05-15T06:38:52.562Z,79.87
2018-05-15T06:41:20.186Z,80.00
2018-05-15T06:43:47.749Z,80.09
2018-05-15T06:46:15.358Z,78.32
2018-05-15T06:48:42.873Z,78.78
2018-05-15T06:51:10.447Z,79.04
2018-05-15T06:53:38.000Z,80.00
2018-05-15T06:56:05.570Z,79.27
2018-05-15T06:58:33.128Z,78.30
2018-05-15T07:01:00.664Z,79.72
2018-05-15T07:03:28.214Z,78.25
2018-05-15T07:05:55.852Z,79.08
2018-05-15T07:08:23.398Z,79.38
2018-05-15T07:10:50.992Z,79.42
2018-05-15T07:13:18.549Z,78.52
2018-05-15T07:15:46.114Z,78.45
2018-05-15T07:18:13.782Z,78.10
2018-05-15T07:20:41.468Z,75.53
2018-05-15T07:23:08.996Z,75.31
2018-05-15T07:25:36.676Z,74.45
2018-05-15T07:28:04.214Z,73.59
2018-05-15T07:30:31.766Z,71.63
2018-05-15T07:32:59.303Z,69.40
2018-05-15T07:35:26.861Z,65.72
2018-05-15T07:37:54.462Z,64.42
2018-05-15T07:40:22.050Z,64.87
2018-05-15T07:42:49.608Z,61.72
2018-05-15T07:45:17.137Z,60.38
2018-05-15T07:47:44.705Z,60.53
2018-05-15T07:50:12.319Z,59.30
2018-05-15T07:52:39.856Z,61.10
2018-05-15T07:55:07.405Z,60.05
2018-05-15T07:57:34.931Z,57.51
2018-05-15T08:00:02.474Z,58.45
2018-05-15T08:02:30.082Z,59.94
2018-05-15T08:04:57.654Z,62.70
2018-05-15T08:07:25.201Z,59.29
2018-05-15T08:09:52.748Z,61.86
2018-05-15T08:12:20.302Z,62.63
2018-05-15T08:14:47.855Z,63.17
2018-05-15T08:17:15.408Z,60.21
2018-05-15T08:19:42.953Z,59.51
2018-05-15T08:22:10.534Z,61.86
2018-05-15T08:24:38.155Z,60.96
2018-05-15T08:27:05.754Z,60.25
2018-05-15T08:29:33.319Z,60.50
2018-05-15T08:32:02.840Z,58.56
2018-05-15T08:34:30.418Z,56.65
2018-05-15T08:36:58.974Z,54.07
2018-05-15T08:39:26.556Z,55.13
2018-05-15T08:42:01.746Z,55.43
2018-05-15T08:44:29.332Z,55.28
2018-05-15T08:46:56.877Z,53.49
2018-05-15T08:49:24.429Z,52.71
2018-05-15T08:51:52.081Z,54.88
2018-05-15T08:54:19.667Z,51.42
2018-05-15T08:56:50.768Z,54.46
2018-05-15T08:59:18.338Z,53.55
2018-05-15T09:01:45.890Z,54.88
2018-05-15T09:04:13.426Z,53.27
2018-05-15T09:06:40.955Z,48.76
2018-05-15T09:09:08.537Z,51.75
2018-05-15T09:11:37.074Z,56.57
2018-05-15T09:14:04.629Z,53.74
2018-05-15T09:16:35.857Z,51.10
2018-05-15T09:19:06.767Z,49.41
2018-05-15T09:21:34.256Z,52.43
2018-05-15T09:24:01.866Z,50.94
2018-05-15T09:26:29.450Z,51.12
2018-05-15T09:28:57.039Z,48.99
2018-05-15T09:31:26.642Z,44.73
2018-05-15T09:33:55.323Z,44.78
2018-05-15T09:36:22.965Z,43.89
2018-05-15T09:38:50.445Z,45.35
2018-05-15T09:41:18.032Z,45.58
2018-05-15T09:44:00.631Z,45.41
2018-05-15T09:46:28.236Z,44.19
2018-05-15T09:48:55.897Z,43.69
2018-05-15T09:51:23.734Z,45.46
2018-05-15T09:53:51.274Z,43.10
2018-05-15T09:56:18.832Z,42.58
2018-05-15T09:58:46.432Z,43.76
2018-05-15T10:01:14.041Z,42.70
2018-05-15T10:03:41.585Z,44.47
2018-05-15T10:06:09.229Z,42.57
2018-05-15T10:08:36.814Z,46.05
2018-05-15T10:11:04.393Z,44.60
2018-05-15T10:13:31.980Z,42.57
2018-05-15T10:15:59.544Z,42.65
2018-05-15T10:18:29.412Z,40.97
2018-05-15T10:20:56.986Z,41.59
2018-05-15T10:23:24.561Z,41.21
2018-05-15T10:25:52.131Z,40.58
2018-05-15T10:28:19.652Z,38.69
2018-05-15T10:30:47.197Z,42.16
2018-05-15T10:33:15.742Z,43.50
2018-05-15T10:35:43.294Z,41.48
2018-05-15T10:38:10.857Z,42.96
2018-05-15T10:40:38.428Z,40.70
2018-05-15T10:43:05.973Z,41.26
2018-05-15T10:45:33.579Z,35.31
2018-05-15T10:48:01.169Z,33.51
2018-05-15T10:50:28.708Z,31.59
2018-05-15T10:52:56.347Z,33.49
2018-05-15T10:55:23.909Z,33.70
2018-05-15T10:57:51.463Z,35.53
2018-05-15T11:00:19.039Z,39.92
2018-05-15T11:02:46.592Z,38.94
2018-05-15T11:05:14.431Z,37.75
2018-05-15T11:07:43.435Z,37.41
2018-05-15T11:10:11.002Z,34.66
2018-05-15T11:12:38.584Z,37.34
2018-05-15T11:15:06.140Z,34.10
2018-05-15T11:17:33.749Z,30.87
2018-05-15T11:20:13.218Z,30.20
2018-05-15T11:22:52.723Z,35.40
2018-05-15T11:25:20.498Z,34.67
2018-05-15T11:27:48.058Z,36.45
2018-05-15T11:30:15.634Z,34.12
2018-05-15T11:32:43.219Z,31.64
2018-05-15T11:35:10.989Z,33.69
2018-05-15T11:37:38.552Z,35.30
2018-05-15T11:40:06.178Z,36.35
2018-05-15T11:42:33.713Z,37.62
2018-05-15T11:45:01.281Z,34.57
2018-05-15T11:47:28.826Z,32.60
2018-05-15T11:49:57.165Z,30.31
2018-05-15T11:52:24.732Z,31.78
2018-05-15T11:54:51.622Z,29.67
2018-05-15T11:57:19.175Z,28.44
2018-05-15T11:59:46.868Z,23.14
2018-05-15T12:02:14.362Z,22.71
2018-05-15T12:04:42.018Z,19.42
2018-05-15T12:07:09.578Z,17.32
2018-05-15T12:09:37.138Z,17.80
2018-05-15T12:12:04.673Z,18.01
2018-05-15T12:14:32.223Z,20.10
2018-05-15T12:16:59.851Z,21.53
2018-05-15T12:19:27.430Z,22.47
2018-05-15T12:21:54.967Z,24.57
2018-05-15T12:24:25.969Z,26.48
2018-05-15T12:26:55.456Z,29.09
2018-05-15T12:29:23.479Z,29.60
2018-05-15T12:31:50.992Z,31.15
2018-05-15T12:34:18.580Z,32.00
2018-05-15T12:36:46.106Z,28.42
2018-05-15T12:39:13.637Z,21.54
2018-05-15T12:41:41.251Z,18.13
2018-05-15T12:44:08.929Z,17.22
2018-05-15T12:46:36.501Z,14.96
2018-05-15T12:49:04.020Z,13.38
2018-05-15T12:51:31.582Z,14.19
2018-05-15T12:53:59.224Z,15.66
2018-05-15T12:56:26.739Z,13.35
2018-05-15T12:58:54.277Z,16.24
2018-05-15T13:01:21.825Z,15.31
2018-05-15T13:03:49.504Z,14.01
2018-05-15T13:06:17.105Z,14.71
2018-05-15T13:08:49.321Z,14.20
2018-05-15T13:11:23.389Z,13.73
2018-05-15T13:13:52.441Z,13.54
2018-05-15T13:16:20.042Z,11.61
2018-05-15T13:18:47.605Z,11.60
2018-05-15T13:21:15.157Z,14.97
2018-05-15T13:23:43.510Z,17.05
2018-05-15T13:26:12.689Z,17.63
2018-05-15T13:28:40.243Z,14.48
2018-05-15T13:31:09.335Z,16.96
2018-05-15T13:33:36.923Z,17.90
2018-05-15T13:36:04.461Z,17.90
2018-05-15T13:38:32.033Z,15.83
2018-05-15T13:40:59.655Z,16.32
2018-05-15T13:43:27.170Z,19.15
2018-05-15T13:45:54.839Z,20.07
2018-05-15T13:48:22.401Z,19.68
2018-05-15T13:50:49.948Z,17.93
2018-05-15T13:53:17.539Z,17.50
2018-05-15T13:55:45.193Z,15.14
2018-05-15T13:58:12.734Z,14.73
2018-05-15T14:00:40.292Z,12.78
2018-05-15T14:03:07.847Z,12.19
2018-05-15T14:05:35.406Z,13.67
2018-05-15T14:08:03.021Z,13.51
2018-05-15T14:10:30.558Z,13.98
2018-05-15T14:12:58.161Z,13.91
2018-05-15T14:15:25.724Z,13.49
2018-05-15T14:17:53.257Z,16.01
2018-05-15T14:20:20.804Z,17.74
2018-05-15T14:22:48.338Z,17.63
2018-05-15T14:25:15.903Z,19.43
2018-05-15T14:27:43.423Z,16.75
2018-05-15T14:30:11.010Z,14.94
2018-05-15T14:32:38.547Z,15.82
2018-05-15T14:35:06.164Z,15.20
2018-05-15T14:37:33.690Z,13.89
2018-05-15T14:40:01.210Z,13.27
2018-05-15T14:42:40.758Z,13.73
2018-05-15T14:45:08.313Z,14.62
2018-05-15T14:47:35.854Z,15.79
2018-05-15T14:50:03.449Z,16.41
2018-05-15T14:52:30.997Z,15.56
2018-05-15T14:54:58.569Z,16.44
2018-05-15T14:57:26.213Z,16.57
2018-05-15T14:59:53.815Z,17.32
2018-05-15T15:02:21.377Z,15.26
2018-05-15T15:04:48.910Z,14.95
2018-05-15T15:07:16.487Z,16.13
2018-05-15T15:09:44.016Z,17.78
2018-05-15T15:12:11.533Z,19.87
2018-05-15T15:14:39.078Z,20.63
2018-05-15T15:17:06.630Z,18.76
2018-05-15T15:19:34.251Z,16.60
2018-05-15T15:22:01.813Z,14.66
2018-05-15T15:24:29.465Z,15.14
2018-05-15T15:26:57.000Z,14.55
2018-05-15T15:29:24.598Z,16.68
2018-05-15T15:31:52.157Z,16.47
2018-05-15T15:34:19.697Z,17.01
2018-05-15T15:36:47.258Z,17.37
2018-05-15T15:39:14.861Z,17.43
2018-05-15T15:41:42.425Z,16.72
2018-05-15T15:44:09.977Z,19.26
2018-05-15T15:46:37.548Z,21.56
2018-05-15T15:49:19.281Z,23.28
2018-05-15T15:51:46.836Z,23.31
2018-05-15T15:54:14.375Z,24.79
2018-05-15T15:56:41.965Z,23.92
2018-05-15T15:59:09.495Z,22.26
2018-05-15T16:01:37.025Z,21.32
2018-05-15T16:04:04.678Z,20.54
2018-05-15T16:06:32.191Z,22.77
2018-05-15T16:08:59.782Z,23.85
2018-05-15T16:11:27.313Z,24.68
2018-05-15T16:13:54.820Z,26.67
2018-05-15T16:16:22.376Z,29.82
2018-05-15T16:18:49.928Z,30.95
2018-05-15T16:21:17.588Z,32.91
2018-05-15T16:23:45.212Z,33.02
2018-05-15T16:29:04.804Z,34.23
2018-05-15T16:34:23.055Z,33.99
2018-05-15T16:42:33.740Z,37.28
2018-05-15T16:45:01.344Z,35.15
2018-05-15T16:47:29.021Z,34.98
2018-05-15T16:49:56.500Z,34.97
2018-05-15T16:52:24.061Z,34.79
2018-05-15T16:57:42.344Z,37.03
2018-05-15T17:00:09.916Z,36.32
2018-05-15T17:02:37.467Z,37.02
2018-05-15T17:07:55.350Z,37.51
2018-05-15T17:10:22.851Z,38.16
2018-05-15T17:12:50.438Z,38.76
2018-05-15T17:15:18.012Z,39.42
2018-05-15T17:17:45.564Z,39.20
2018-05-15T17:20:13.100Z,40.31
2018-05-15T17:25:31.178Z,41.74
2018-05-15T17:27:58.712Z,42.50
2018-05-15T17:30:26.293Z,43.33
2018-05-15T17:32:53.868Z,44.83
2018-05-15T17:35:21.471Z,46.84
2018-05-15T17:37:49.014Z,47.86
2018-05-15T17:40:16.561Z,48.63
2018-05-15T17:42:44.171Z,48.07
2018-05-15T17:45:11.729Z,48.29
2018-05-15T17:47:39.288Z,49.11
2018-05-15T17:50:06.929Z,48.97
2018-05-15T17:52:34.551Z,48.37
2018-05-15T17:55:02.154Z,49.04
2018-05-15T17:57:29.738Z,49.22
2018-05-15T17:59:57.368Z,50.27
2018-05-15T18:02:24.910Z,50.99
2018-05-15T18:04:52.562Z,50.20
2018-05-15T18:07:20.334Z,50.70
2018-05-15T18:09:47.957Z,50.45
2018-05-15T18:12:15.503Z,50.71
2018-05-15T18:28:58.713Z,52.83
2018-05-15T18:31:26.330Z,52.78
2018-05-15T18:33:53.966Z,52.79
2018-05-15T18:36:21.625Z,53.92
2018-05-15T18:38:49.172Z,54.51
2018-05-15T18:41:16.756Z,55.59
2018-05-15T18:43:44.383Z,55.30
2018-05-15T18:46:12.078Z,56.28
2018-05-15T18:48:39.624Z,56.79
2018-05-15T18:51:07.214Z,57.09
2018-05-15T18:53:34.821Z,57.25
2018-05-15T18:56:02.390Z,57.44
2018-05-15T18:58:29.953Z,58.01
2018-05-15T19:00:57.582Z,57.93
2018-05-15T19:09:06.590Z,59.13
2018-05-15T19:11:34.165Z,58.99
2018-05-15T19:14:01.901Z,59.52
2018-05-15T19:16:29.300Z,59.56
2018-05-15T19:21:47.165Z,59.75
2018-05-15T19:27:05.678Z,58.09
2018-05-15T19:29:33.457Z,58.20
2018-05-15T19:32:06.638Z,58.18
2018-05-15T19:34:34.249Z,57.84
2018-05-15T19:37:07.322Z,58.64
2018-05-15T19:39:34.998Z,58.94
2018-05-15T19:42:02.557Z,59.04
2018-05-15T19:44:30.129Z,58.43
2018-05-15T19:46:57.701Z,58.64
2018-05-15T19:49:25.348Z,59.01
2018-05-15T19:51:52.887Z,58.79
2018-05-15T19:54:20.444Z,59.28
2018-05-15T19:56:48.038Z,57.67
2018-05-15T20:04:56.229Z,57.33
2018-05-15T20:07:25.521Z,57.81
2018-05-15T20:09:53.368Z,58.11
2018-05-15T20:12:20.990Z,58.25
2018-05-15T20:14:48.595Z,58.05
2018-05-15T20:17:16.140Z,57.74
2018-05-15T20:19:43.697Z,57.85
2018-05-15T20:25:02.052Z,58.08
2018-05-15T20:27:29.627Z,58.65
2018-05-15T20:29:57.279Z,58.47
2018-05-15T20:32:24.865Z,58.23
2018-05-15T20:34:52.513Z,58.36
2018-05-15T20:37:20.166Z,59.15
2018-05-15T20:39:47.766Z,60.55
2018-05-15T20:42:15.368Z,61.46
2018-05-15T20:50:23.766Z,63.23
2018-05-15T20:52:51.296Z,63.39
2018-05-15T20:55:18.906Z,63.17
2018-05-15T20:57:46.553Z,63.32
2018-05-15T21:00:14.102Z,63.76
2018-05-15T21:02:41.746Z,64.57
2018-05-15T21:05:09.769Z,64.03
2018-05-15T21:07:37.361Z,63.55
2018-05-15T21:10:04.992Z,64.58
2018-05-15T21:12:32.635Z,64.57
2018-05-15T21:15:00.233Z,64.53
2018-05-15T21:17:27.805Z,64.12
2018-05-15T21:19:55.353Z,64.21
2018-05-15T21:22:22.959Z,64.15
2018-05-15T21:24:50.549Z,64.11
2018-05-15T21:27:18.187Z,64.65
2018-05-15T21:29:45.718Z,64.62
2018-05-15T21:32:13.281Z,65.40
2018-05-15T21:34:40.885Z,65.57
2018-05-15T21:37:08.522Z,65.68
2018-05-15T21:39:36.095Z,64.73
2018-05-15T21:42:03.688Z,64.61
2018-05-15T21:44:31.207Z,65.70
2018-05-15T21:46:58.764Z,65.54
2018-05-15T21:49:26.341Z,64.60
2018-05-15T21:51:53.953Z,64.79
2018-05-15T21:54:21.522Z,65.20
2018-05-15T21:56:49.077Z,66.32
2018-05-15T21:59:16.673Z,66.73
2018-05-15T22:01:44.226Z,67.00
2018-05-15T22:04:11.786Z,67.47
2018-05-15T22:06:39.326Z,67.65
2018-05-15T22:09:07.011Z,68.67
2018-05-15T22:11:47.267Z,68.90
2018-05-15T22:14:26.793Z,68.72
2018-05-15T22:17:06.487Z,68.42
2018-05-15T22:19:45.965Z,68.59
2018-05-15T22:22:14.832Z,68.39
2018-05-15T22:24:42.380Z,67.68
2018-05-15T22:27:09.946Z,67.23
2018-05-15T22:29:37.491Z,67.01
2018-05-15T22:32:05.029Z,66.81
2018-05-15T22:34:32.646Z,67.85
2018-05-15T22:37:00.210Z,68.26
2018-05-15T22:39:27.845Z,68.07
2018-05-15T22:41:55.420Z,67.87
2018-05-15T22:44:23.059Z,68.01
2018-05-15T22:46:50.594Z,68.15
2018-05-15T22:49:18.302Z,67.99
2018-05-15T22:51:45.866Z,68.64
2018-05-15T22:54:13.412Z,69.52
2018-05-15T22:56:40.958Z,70.03
2018-05-15T22:59:08.632Z,70.22
2018-05-15T23:01:36.219Z,70.14
2018-05-15T23:04:03.801Z,70.04
2018-05-15T23:06:31.389Z,69.78
2018-05-15T23:08:59.067Z,70.08
2018-05-15T23:11:26.753Z,70.52
2018-05-15T23:13:54.576Z,70.50
2018-05-15T23:16:22.146Z,70.34
2018-05-15T23:18:49.717Z,70.53
2018-05-15T23:21:17.274Z,70.84
2018-05-15T23:23:45.577Z,70.77
2018-05-15T23:26:13.210Z,70.97
2018-05-15T23:28:40.798Z,71.01
2018-05-15T23:31:08.342Z,70.86
2018-05-15T23:33:35.911Z,70.87
2018-05-15T23:36:03.497Z,70.52
2018-05-15T23:38:31.118Z,70.25
2018-05-15T23:40:58.708Z,71.18
2018-05-15T23:43:26.286Z,72.14
2018-05-15T23:45:53.882Z,73.52
2018-05-15T23:48:21.410Z,72.63
2018-05-15T23:50:48.987Z,73.09
2018-05-15T23:53:16.541Z,73.92
2018-05-15T23:55:44.135Z,73.38
2018-05-15T23:58:11.705Z,73.48
